Terminal Aerodrome Forecast
Issued by NWS

Home | Current Version | Previous Version | Graphics & Text | Print | Product List | Glossary On
Versions: 1 2 3 4 5 6 7 8 9 10 11 12 13 14 15 16 17 18 19 20 21 22 23 24 25 26 27 28 29 30 31 32 33 34
677
FTUS43 KGRB 230520
TAFRHI
TAF
KRHI 230520Z 2306/2406 16007KT P6SM BKN100
     FM231100 16009KT 6SM -SN OVC040
     FM231400 17012G19KT P6SM OVC070
     FM232200 17010G17KT P6SM VCSH OVC035
     FM240000 15010G17KT P6SM -SHRA OVC035
     FM240200 18008KT 4SM -FZRA BR OVC018 WS020/20040KT=

USA.gov is the U.S. government's official web portal to all federal, state and local government web resources and services.